createdAt,value
2019-05-18T00:01:39.565Z,3.47
2019-05-18T00:04:07.280Z,3.70
2019-05-18T00:06:34.916Z,3.17
2019-05-18T00:09:04.544Z,3.90
2019-05-18T00:11:32.684Z,3.37
2019-05-18T00:14:00.367Z,5.37
2019-05-18T00:16:28.174Z,3.77
2019-05-18T00:18:56.270Z,3.67
2019-05-18T00:21:23.929Z,5.10
2019-05-18T00:23:51.658Z,4.23
2019-05-18T00:26:19.325Z,3.53
2019-05-18T00:28:46.964Z,5.40
2019-05-18T00:31:14.929Z,3.07
2019-05-18T00:33:42.650Z,5.07
2019-05-18T00:36:10.620Z,3.70
2019-05-18T00:38:38.278Z,3.63
2019-05-18T00:41:05.933Z,4.40
2019-05-18T00:43:33.657Z,3.60
2019-05-18T00:46:01.324Z,3.77
2019-05-18T00:48:29.382Z,4.30
2019-05-18T00:50:57.061Z,4.17
2019-05-18T00:53:24.782Z,4.27
2019-05-18T00:55:52.449Z,4.73
2019-05-18T00:58:20.215Z,4.70
2019-05-18T01:00:48.294Z,4.07
2019-05-18T01:03:16.366Z,4.10
2019-05-18T01:05:44.499Z,5.03
2019-05-18T01:08:12.350Z,3.60
2019-05-18T01:10:40.043Z,4.27
2019-05-18T01:13:07.724Z,4.00
2019-05-18T01:15:35.435Z,3.57
2019-05-18T01:18:03.140Z,3.47
2019-05-18T01:20:30.792Z,2.90
2019-05-18T01:22:58.537Z,3.90
2019-05-18T01:25:26.314Z,3.10
2019-05-18T01:27:53.949Z,3.97
2019-05-18T01:30:21.743Z,4.30
2019-05-18T01:32:49.383Z,3.57
2019-05-18T01:35:17.465Z,4.17
2019-05-18T01:37:45.415Z,3.87
2019-05-18T01:40:13.135Z,3.73
2019-05-18T01:42:40.843Z,3.00
2019-05-18T01:45:16.891Z,3.23
2019-05-18T01:47:38.023Z,2.90
2019-05-18T01:50:06.186Z,3.03
2019-05-18T01:52:34.266Z,5.43
2019-05-18T01:55:01.975Z,3.73
2019-05-18T01:57:29.731Z,3.40
2019-05-18T01:59:57.487Z,3.83
2019-05-18T02:02:25.229Z,4.83
2019-05-18T02:04:52.906Z,3.03
2019-05-18T02:07:20.782Z,2.57
2019-05-18T02:09:48.735Z,3.60
2019-05-18T02:12:16.429Z,3.10
2019-05-18T02:14:44.179Z,2.63
2019-05-18T02:17:12.209Z,3.77
2019-05-18T02:19:39.912Z,2.77
2019-05-18T02:22:07.582Z,4.57
2019-05-18T02:24:35.625Z,3.50
2019-05-18T02:27:03.401Z,2.33
2019-05-18T02:29:31.080Z,4.27
2019-05-18T02:31:58.783Z,3.60
2019-05-18T02:34:26.493Z,3.90
2019-05-18T02:36:54.522Z,3.50
2019-05-18T02:39:22.279Z,3.63
2019-05-18T02:41:50.400Z,3.83
2019-05-18T02:44:18.550Z,2.93
2019-05-18T02:46:46.278Z,3.70
2019-05-18T02:49:14.438Z,3.87
2019-05-18T02:51:42.579Z,4.23
2019-05-18T02:54:10.266Z,4.37
2019-05-18T02:56:38.178Z,4.37
2019-05-18T02:59:05.875Z,3.10
2019-05-18T03:01:33.571Z,3.90
2019-05-18T03:04:01.550Z,4.87
2019-05-18T03:06:29.617Z,3.57
2019-05-18T03:08:57.352Z,5.93
2019-05-18T03:11:25.234Z,4.70
2019-05-18T03:13:53.042Z,5.37
2019-05-18T03:16:20.775Z,4.60
2019-05-18T03:19:06.278Z,5.67
2019-05-18T03:21:18.004Z,4.17
2019-05-18T03:23:45.675Z,4.77
2019-05-18T03:26:13.742Z,3.80
2019-05-18T03:28:41.368Z,4.63
2019-05-18T03:31:09.351Z,4.87
2019-05-18T03:33:37.028Z,4.30
2019-05-18T03:36:05.419Z,4.40
2019-05-18T03:38:33.251Z,4.90
2019-05-18T03:41:01.224Z,4.73
2019-05-18T03:43:29.318Z,3.77
2019-05-18T03:45:56.958Z,5.97
2019-05-18T03:48:24.643Z,5.37
2019-05-18T03:50:52.378Z,5.37
2019-05-18T03:53:20.042Z,5.20
2019-05-18T03:55:47.721Z,5.40
2019-05-18T03:58:15.459Z,4.00
2019-05-18T04:00:43.831Z,5.07
2019-05-18T04:03:11.865Z,5.93
2019-05-18T04:05:39.578Z,4.93
2019-05-18T04:08:07.457Z,5.47
2019-05-18T04:10:35.191Z,6.00
2019-05-18T04:13:03.258Z,5.73
2019-05-18T04:15:31.320Z,5.83
2019-05-18T04:17:59.010Z,4.10
2019-05-18T04:20:26.751Z,6.37
2019-05-18T04:22:54.918Z,5.33
2019-05-18T04:25:23.139Z,5.30
2019-05-18T04:27:50.764Z,5.80
2019-05-18T04:30:18.956Z,7.03
2019-05-18T04:32:46.610Z,6.50
2019-05-18T04:35:14.893Z,5.47
2019-05-18T04:37:42.546Z,5.77
2019-05-18T04:40:10.327Z,6.33
2019-05-18T04:42:38.053Z,4.70
2019-05-18T04:45:06.937Z,5.03
2019-05-18T04:47:35.054Z,4.30
2019-05-18T04:50:05.884Z,2.93
2019-05-18T04:52:32.487Z,3.77
2019-05-18T04:55:00.688Z,4.47
2019-05-18T04:57:28.588Z,5.37
2019-05-18T04:59:56.338Z,4.87
2019-05-18T05:02:24.446Z,4.03
2019-05-18T05:04:56.412Z,4.27
2019-05-18T05:07:21.561Z,4.30
2019-05-18T05:09:49.276Z,4.07
2019-05-18T05:12:17.352Z,4.20
2019-05-18T05:14:45.017Z,4.63
2019-05-18T05:17:13.082Z,3.43
2019-05-18T05:19:40.856Z,5.30
2019-05-18T05:22:08.776Z,5.30
2019-05-18T05:24:36.692Z,4.20
2019-05-18T05:27:04.790Z,2.93
2019-05-18T05:29:32.423Z,3.83
2019-05-18T05:32:00.064Z,2.60
2019-05-18T05:34:27.827Z,3.33
2019-05-18T05:36:55.520Z,4.10
2019-05-18T05:39:23.592Z,3.93
2019-05-18T05:41:51.334Z,3.20
2019-05-18T05:44:19.370Z,5.00
2019-05-18T05:46:47.026Z,3.20
2019-05-18T05:49:14.670Z,2.90
2019-05-18T05:51:42.455Z,3.30
2019-05-18T05:54:10.199Z,3.67
2019-05-18T05:56:37.906Z,3.17
2019-05-18T05:59:05.588Z,4.57
2019-05-18T06:01:33.773Z,4.13
2019-05-18T06:04:01.791Z,2.40
2019-05-18T06:06:29.790Z,2.47
2019-05-18T06:08:57.479Z,2.67
2019-05-18T06:11:25.143Z,2.43
2019-05-18T06:13:52.884Z,2.57
2019-05-18T06:16:20.568Z,2.30
2019-05-18T06:18:48.726Z,2.37
2019-05-18T06:21:16.382Z,2.43
2019-05-18T06:23:44.379Z,3.27
2019-05-18T06:26:12.129Z,2.90
2019-05-18T06:28:39.809Z,2.60
2019-05-18T06:31:07.588Z,1.53
2019-05-18T06:33:35.315Z,2.80
2019-05-18T06:36:02.956Z,3.47
2019-05-18T06:38:31.359Z,2.70
2019-05-18T06:40:59.021Z,2.57
2019-05-18T06:43:26.697Z,3.40
2019-05-18T06:45:54.647Z,2.40
2019-05-18T06:48:22.333Z,2.83
2019-05-18T06:51:04.961Z,2.67
2019-05-18T06:53:23.403Z,3.17
2019-05-18T06:55:51.007Z,1.70
2019-05-18T06:58:20.468Z,2.70
2019-05-18T07:00:48.126Z,2.63
2019-05-18T07:03:16.295Z,2.40
2019-05-18T07:05:43.982Z,2.13
2019-05-18T07:08:11.709Z,1.70
2019-05-18T07:10:39.735Z,1.83
2019-05-18T07:13:07.398Z,1.50
2019-05-18T07:15:35.137Z,2.23
2019-05-18T07:18:03.146Z,1.80
2019-05-18T07:20:31.138Z,1.53
2019-05-18T07:22:59.125Z,1.97
2019-05-18T07:25:26.859Z,2.03
2019-05-18T07:27:55.021Z,2.30
2019-05-18T07:30:22.731Z,1.90
2019-05-18T07:32:50.421Z,1.97
2019-05-18T07:35:18.347Z,1.27
2019-05-18T07:37:46.336Z,2.13
2019-05-18T07:40:14.544Z,3.30
2019-05-18T07:42:42.712Z,3.27
2019-05-18T07:45:10.750Z,1.20
2019-05-18T07:47:38.445Z,2.00
2019-05-18T07:50:07.538Z,2.43
2019-05-18T07:52:35.713Z,2.83
2019-05-18T07:55:04.125Z,3.50
2019-05-18T07:57:32.255Z,2.63
2019-05-18T08:00:00.314Z,2.33
2019-05-18T08:02:28.363Z,1.90
2019-05-18T08:04:56.026Z,1.63
2019-05-18T08:07:23.896Z,2.37
2019-05-18T08:09:51.552Z,1.87
2019-05-18T08:12:19.259Z,2.23
2019-05-18T08:14:47.398Z,1.43
2019-05-18T08:17:15.033Z,0.87
2019-05-18T08:19:42.699Z,1.27
2019-05-18T08:22:10.723Z,1.67
2019-05-18T08:24:38.368Z,0.80
2019-05-18T08:27:06.085Z,1.10
2019-05-18T08:29:33.850Z,1.90
2019-05-18T08:32:01.521Z,0.87
2019-05-18T08:34:29.395Z,0.57
2019-05-18T08:36:57.469Z,0.63
2019-05-18T16:22:33.453Z,0.80
2019-05-18T16:25:01.305Z,0.67
2019-05-18T16:27:29.045Z,0.97
2019-05-18T16:29:56.858Z,1.07
2019-05-18T16:32:24.672Z,0.87
2019-05-18T16:34:52.492Z,0.97
2019-05-18T16:37:20.367Z,0.53
2019-05-18T16:39:48.139Z,1.37
2019-05-18T16:42:16.006Z,0.30
2019-05-18T16:44:43.761Z,1.33
2019-05-18T16:47:11.544Z,1.37
2019-05-18T16:49:39.306Z,1.40
2019-05-18T16:52:07.011Z,0.83
2019-05-18T16:54:34.731Z,0.70
2019-05-18T16:57:02.493Z,0.73
2019-05-18T16:59:30.243Z,1.10
2019-05-18T17:01:58.030Z,0.67
2019-05-18T17:04:25.673Z,0.97
2019-05-18T17:06:53.558Z,1.00
2019-05-18T17:09:21.337Z,1.43
2019-05-18T17:11:49.098Z,0.90
2019-05-18T17:14:17.056Z,0.60
2019-05-18T17:16:44.707Z,0.60
2019-05-18T17:19:12.496Z,1.17
2019-05-18T17:21:40.261Z,0.60
2019-05-18T17:24:08.021Z,0.73
2019-05-18T17:26:50.063Z,0.80
2019-05-18T17:29:05.111Z,0.77
2019-05-18T17:31:32.761Z,0.40
2019-05-18T17:34:00.631Z,1.37
2019-05-18T17:36:28.494Z,1.00
2019-05-18T17:38:56.255Z,0.43
2019-05-18T17:41:24.128Z,0.70
2019-05-18T17:43:51.773Z,0.30
2019-05-18T17:46:19.666Z,0.80
2019-05-18T17:48:47.425Z,0.80
2019-05-18T17:51:15.052Z,0.80
2019-05-18T17:53:42.845Z,0.80
2019-05-18T17:56:10.621Z,0.90
2019-05-18T17:58:38.385Z,0.83
2019-05-18T18:01:06.256Z,0.30
2019-05-18T18:03:34.118Z,0.93
2019-05-18T18:06:01.897Z,0.80
2019-05-18T18:08:29.610Z,0.80
2019-05-18T18:10:57.423Z,0.93
2019-05-18T18:13:25.286Z,1.73
2019-05-18T18:15:53.050Z,1.40
2019-05-18T18:18:20.802Z,1.57
2019-05-18T18:20:48.692Z,5.90
2019-05-18T18:23:16.558Z,4.27
2019-05-18T18:25:44.205Z,6.37
2019-05-18T18:28:11.981Z,2.80
2019-05-18T18:30:39.654Z,3.87
2019-05-18T18:33:07.323Z,3.73
2019-05-18T18:35:35.070Z,3.43
2019-05-18T18:38:02.842Z,3.17
2019-05-18T18:40:30.923Z,3.03
2019-05-18T18:42:58.741Z,4.00
2019-05-18T18:45:26.427Z,3.27
2019-05-18T18:47:54.104Z,3.87
2019-05-18T18:50:21.814Z,3.73
2019-05-18T18:52:49.550Z,3.70
2019-05-18T18:55:17.323Z,3.13
2019-05-18T18:57:45.173Z,4.23
2019-05-18T19:00:13.341Z,2.67
2019-05-18T19:02:41.238Z,2.63
2019-05-18T19:05:09.202Z,1.47
2019-05-18T19:07:36.899Z,1.93
2019-05-18T19:10:05.828Z,1.72
2019-05-18T19:12:33.811Z,1.80
2019-05-18T19:15:01.686Z,1.17
2019-05-18T19:17:31.158Z,2.97
2019-05-18T19:19:58.894Z,2.40
2019-05-18T19:22:26.838Z,1.87
2019-05-18T19:24:55.920Z,2.27
2019-05-18T19:27:23.771Z,2.50
2019-05-18T19:29:51.667Z,2.07
2019-05-18T19:32:19.384Z,1.73
2019-05-18T19:34:47.091Z,3.00
2019-05-18T19:37:14.962Z,1.23
2019-05-18T19:39:42.834Z,2.70
2019-05-18T19:42:10.580Z,2.17
2019-05-18T19:44:38.316Z,1.60
2019-05-18T19:47:06.025Z,1.90
2019-05-18T19:49:33.758Z,1.53
2019-05-18T19:52:01.384Z,1.10
2019-05-18T19:54:29.112Z,1.27
2019-05-18T19:56:56.990Z,0.70
2019-05-18T19:59:24.858Z,1.03
2019-05-18T20:01:52.763Z,1.27
2019-05-18T20:04:20.491Z,0.90
2019-05-18T20:06:48.318Z,0.90
2019-05-18T20:09:16.022Z,1.00
2019-05-18T20:11:43.787Z,1.30
2019-05-18T20:14:11.655Z,1.17
2019-05-18T20:16:39.535Z,0.80
2019-05-18T20:19:07.268Z,0.77
2019-05-18T20:21:35.077Z,1.33
2019-05-18T20:24:02.817Z,1.07
2019-05-18T20:26:30.493Z,0.80
2019-05-18T20:28:58.352Z,1.10
2019-05-18T20:31:26.119Z,0.97
2019-05-18T20:33:53.773Z,1.33
2019-05-18T20:36:21.456Z,0.73
2019-05-18T20:38:49.416Z,0.73
2019-05-18T20:41:17.183Z,0.87
2019-05-18T20:43:44.860Z,0.37
2019-05-18T20:46:12.601Z,0.63
2019-05-18T20:48:40.374Z,0.30
2019-05-18T20:51:08.437Z,0.40
2019-05-18T20:53:36.108Z,0.83
2019-05-18T20:56:03.782Z,0.33
2019-05-18T20:58:40.208Z,0.60
2019-05-18T21:01:01.044Z,0.40
2019-05-18T21:03:28.814Z,0.20
2019-05-18T21:05:56.563Z,0.50
2019-05-18T21:08:24.343Z,0.17
2019-05-18T21:10:52.108Z,0.60
2019-05-18T21:13:19.805Z,0.30
2019-05-18T21:15:47.538Z,0.93
2019-05-18T21:18:15.491Z,0.50
2019-05-18T21:20:43.480Z,0.43
2019-05-18T21:23:11.250Z,0.60
2019-05-18T21:25:39.025Z,1.00
2019-05-18T21:28:06.886Z,0.40
2019-05-18T21:30:34.644Z,0.50
2019-05-18T21:33:02.420Z,0.60
2019-05-18T21:35:30.169Z,0.33
2019-05-18T21:37:57.833Z,0.30
2019-05-18T21:40:26.323Z,0.90
2019-05-18T21:42:54.101Z,0.50
2019-05-18T21:45:22.161Z,0.90
2019-05-18T21:47:49.883Z,0.70
2019-05-18T21:50:17.540Z,0.50
2019-05-18T21:52:45.295Z,0.60
2019-05-18T21:55:13.022Z,0.47
2019-05-18T21:57:40.786Z,0.60
2019-05-18T22:00:08.979Z,0.23
2019-05-18T22:02:36.724Z,0.70
2019-05-18T22:05:05.012Z,1.07
2019-05-18T22:07:33.638Z,0.77
2019-05-18T22:10:01.443Z,0.40
2019-05-18T22:12:29.328Z,0.53
2019-05-18T22:14:57.202Z,0.40
2019-05-18T22:17:25.131Z,0.53
2019-05-18T22:19:53.139Z,0.60
2019-05-18T22:22:20.798Z,0.77
2019-05-18T22:24:48.575Z,0.50
2019-05-18T22:27:16.332Z,0.60
2019-05-18T22:29:44.095Z,1.60
2019-05-18T22:32:12.221Z,0.47
2019-05-18T22:34:40.141Z,0.23
2019-05-18T22:37:08.019Z,0.73
2019-05-18T22:39:37.446Z,0.40
2019-05-18T22:42:05.537Z,1.02
2019-05-18T22:44:33.344Z,0.70
2019-05-18T22:47:01.236Z,0.60
2019-05-18T22:49:28.990Z,0.77
2019-05-18T22:51:56.604Z,0.40
2019-05-18T22:54:24.331Z,1.20
2019-05-18T22:56:52.044Z,0.40
2019-05-18T22:59:19.859Z,0.83
2019-05-18T23:01:47.613Z,0.93
2019-05-18T23:04:15.482Z,0.50
2019-05-18T23:06:43.253Z,0.97
2019-05-18T23:09:11.119Z,0.47
2019-05-18T23:11:38.869Z,0.40
2019-05-18T23:14:06.644Z,0.70
2019-05-18T23:16:34.414Z,0.17
2019-05-18T23:19:02.298Z,0.33
2019-05-18T23:21:29.944Z,0.50
2019-05-18T23:23:57.713Z,0.43
2019-05-18T23:26:25.585Z,0.70
2019-05-18T23:28:53.563Z,0.30
2019-05-18T23:31:21.331Z,1.33
2019-05-18T23:33:48.994Z,0.60
2019-05-18T23:36:16.749Z,0.67
2019-05-18T23:38:44.617Z,0.43
2019-05-18T23:41:12.301Z,0.57
2019-05-18T23:43:39.953Z,0.77
2019-05-18T23:46:07.708Z,0.60
2019-05-18T23:48:37.552Z,0.50
2019-05-18T23:51:05.740Z,0.70
2019-05-18T23:53:33.565Z,0.40
2019-05-18T23:56:01.333Z,0.63
2019-05-18T23:58:28.993Z,1.13
